createdAt,value
2022-08-28T00:03:34.124Z,7.70
2022-08-28T00:08:35.360Z,7.70
2022-08-28T00:13:36.615Z,8.00
2022-08-28T00:18:38.407Z,7.60
2022-08-28T00:23:42.697Z,8.90
2022-08-28T00:28:44.673Z,7.30
2022-08-28T00:33:48.097Z,7.30
2022-08-28T00:38:49.724Z,6.80
2022-08-28T00:44:24.155Z,6.70
2022-08-28T00:49:31.817Z,7.10
2022-08-28T00:54:37.739Z,7.10
2022-08-28T00:59:38.911Z,7.40
2022-08-28T01:04:40.225Z,7.20
2022-08-28T01:09:46.880Z,7.60
2022-08-28T01:14:52.753Z,7.50
2022-08-28T01:20:02.632Z,8.90
2022-08-28T01:25:10.567Z,8.10
2022-08-28T01:30:17.269Z,7.50
2022-08-28T01:35:25.280Z,7.50
2022-08-28T01:40:36.277Z,7.20
2022-08-28T01:45:40.228Z,6.30
2022-08-28T01:50:42.221Z,7.30
2022-08-28T01:55:43.775Z,5.60
2022-08-28T02:00:45.187Z,5.90
2022-08-28T02:05:46.635Z,6.70
2022-08-28T02:10:48.482Z,5.90
2022-08-28T02:15:51.111Z,5.40
2022-08-28T02:20:52.655Z,6.10
2022-08-28T02:25:53.970Z,5.60
2022-08-28T02:30:55.172Z,6.40
2022-08-28T02:35:56.542Z,6.00
2022-08-28T02:40:57.929Z,6.20
2022-08-28T02:45:59.149Z,5.50
2022-08-28T02:51:03.627Z,5.30
2022-08-28T02:56:05.509Z,5.60
2022-08-28T03:01:10.104Z,5.90
2022-08-28T03:06:12.395Z,5.90
2022-08-28T03:11:13.864Z,5.70
2022-08-28T03:16:15.135Z,5.40
2022-08-28T03:21:16.668Z,5.50
2022-08-28T03:26:19.625Z,6.20
2022-08-28T03:31:24.323Z,5.40
2022-08-28T03:36:27.755Z,5.60
2022-08-28T03:41:30.709Z,5.60
2022-08-28T03:46:33.524Z,5.70
2022-08-28T03:51:35.310Z,5.30
2022-08-28T03:56:36.427Z,6.20
2022-08-28T04:01:37.667Z,6.70
2022-08-28T04:06:38.867Z,6.90
2022-08-28T04:11:43.479Z,5.90
2022-08-28T04:16:44.639Z,6.10
2022-08-28T04:21:45.852Z,6.10
2022-08-28T04:26:46.992Z,6.10
2022-08-28T04:31:48.994Z,6.30
2022-08-28T04:36:51.184Z,5.90
2022-08-28T04:41:55.079Z,5.80
2022-08-28T04:46:57.928Z,6.10
2022-08-28T04:52:00.296Z,6.00
2022-08-28T04:57:02.026Z,6.70
2022-08-28T05:02:07.663Z,5.10
2022-08-28T05:07:08.921Z,5.30
2022-08-28T05:12:16.277Z,5.60
2022-08-28T05:17:17.551Z,6.10
2022-08-28T05:22:18.731Z,6.00
2022-08-28T05:27:20.013Z,5.90
2022-08-28T05:32:21.204Z,5.90
2022-08-28T05:37:22.416Z,6.00
2022-08-28T05:42:23.505Z,5.90
2022-08-28T05:47:31.993Z,5.50
2022-08-28T05:52:34.318Z,4.70
2022-08-28T05:57:35.476Z,4.50
2022-08-28T06:02:36.641Z,4.20
2022-08-28T06:07:37.849Z,4.20
2022-08-28T06:12:39.069Z,4.30
2022-08-28T06:17:41.659Z,3.90
2022-08-28T06:22:43.161Z,4.00
2022-08-28T06:27:44.315Z,3.70
2022-08-28T06:32:47.456Z,3.50
2022-08-28T06:37:49.216Z,3.20
2022-08-28T06:42:50.883Z,3.40
2022-08-28T06:47:52.031Z,3.70
2022-08-28T06:52:54.782Z,3.60
2022-08-28T06:57:55.981Z,3.50
2022-08-28T07:02:58.580Z,3.60
2022-08-28T07:08:00.136Z,3.70
2022-08-28T07:13:02.816Z,3.30
2022-08-28T07:18:03.938Z,3.50
2022-08-28T07:23:05.269Z,3.40
2022-08-28T07:28:07.632Z,3.50
2022-08-28T07:33:08.813Z,3.50
2022-08-28T07:38:10.808Z,3.30
2022-08-28T07:43:30.616Z,3.20
2022-08-28T07:48:36.195Z,3.40
2022-08-28T07:53:37.419Z,3.80
2022-08-28T07:58:38.941Z,3.30
2022-08-28T08:03:40.139Z,3.20
2022-08-28T08:08:41.667Z,3.50
2022-08-28T08:13:45.560Z,3.80
2022-08-28T08:18:48.257Z,3.50
2022-08-28T08:23:49.657Z,3.50
2022-08-28T08:28:51.708Z,3.30
2022-08-28T08:33:56.433Z,3.30
2022-08-28T08:38:59.272Z,3.70
2022-08-28T08:44:15.509Z,3.50
2022-08-28T08:49:19.829Z,3.70
2022-08-28T08:54:23.894Z,3.70
2022-08-28T08:59:38.149Z,3.40
2022-08-28T09:05:01.362Z,3.50
2022-08-28T09:10:06.968Z,3.40
2022-08-28T09:15:25.537Z,3.50
2022-08-28T09:20:32.909Z,3.70
2022-08-28T09:26:01.910Z,3.30
2022-08-28T09:31:12.053Z,3.30
2022-08-28T09:36:31.904Z,3.40
2022-08-28T09:42:36.975Z,3.50
2022-08-28T09:47:48.069Z,3.10
2022-08-28T09:52:51.556Z,3.50
2022-08-28T09:57:53.883Z,3.50
2022-08-28T10:03:14.124Z,3.40
2022-08-28T10:08:23.491Z,3.60
2022-08-28T10:13:39.649Z,3.50
2022-08-28T10:18:59.593Z,3.00
2022-08-28T10:24:26.665Z,3.10
2022-08-28T10:30:08.848Z,3.20
2022-08-28T10:35:50.297Z,3.40
2022-08-28T10:45:54.172Z,3.50
2022-08-28T10:51:00.848Z,3.30
2022-08-28T10:56:14.960Z,3.70
2022-08-28T11:01:37.824Z,3.40
2022-08-28T11:06:51.430Z,3.50
2022-08-28T11:12:02.054Z,3.50
2022-08-28T11:17:08.369Z,3.50
2022-08-28T11:22:17.107Z,3.70
2022-08-28T11:27:32.330Z,3.40
2022-08-28T11:32:33.387Z,3.30
2022-08-28T11:37:54.132Z,3.80
2022-08-28T11:43:14.128Z,4.40
2022-08-28T11:48:36.745Z,5.00
2022-08-28T11:54:02.812Z,4.50
2022-08-28T11:59:25.683Z,4.50
2022-08-28T12:04:42.187Z,4.70
2022-08-28T12:09:49.114Z,4.80
2022-08-28T12:15:00.715Z,4.10
2022-08-28T12:20:09.674Z,4.60
2022-08-28T12:25:23.457Z,4.80
2022-08-28T12:30:34.550Z,4.70
2022-08-28T12:35:36.184Z,4.60
2022-08-28T12:40:37.348Z,4.50
2022-08-28T12:46:00.331Z,5.30
2022-08-28T12:51:08.391Z,4.90
2022-08-28T12:56:12.295Z,4.80
2022-08-28T13:01:23.043Z,4.60
2022-08-28T13:06:29.045Z,4.90
2022-08-28T13:11:36.160Z,4.80
2022-08-28T13:16:41.077Z,4.50
2022-08-28T13:21:51.141Z,4.50
2022-08-28T13:27:20.755Z,4.90
2022-08-28T13:32:22.654Z,4.40
2022-08-28T13:37:43.017Z,5.20
2022-08-28T13:42:45.834Z,4.90
2022-08-28T13:47:47.024Z,5.00
2022-08-28T13:52:48.210Z,5.20
2022-08-28T13:57:49.426Z,4.70
2022-08-28T14:03:08.957Z,5.10
2022-08-28T14:08:10.315Z,5.00
2022-08-28T14:13:12.133Z,4.90
2022-08-28T14:18:13.716Z,5.50
2022-08-28T14:23:15.287Z,4.70
2022-08-28T14:28:17.078Z,5.10
2022-08-28T14:33:18.837Z,5.00
2022-08-28T14:38:22.433Z,5.20
2022-08-28T14:43:24.068Z,5.00
2022-08-28T14:48:25.914Z,5.30
2022-08-28T14:53:27.204Z,5.50
2022-08-28T14:58:31.784Z,5.60
2022-08-28T15:03:33.479Z,5.10
2022-08-28T15:08:36.127Z,5.30
2022-08-28T15:13:37.399Z,5.30
2022-08-28T15:18:40.512Z,5.70
2022-08-28T15:23:43.008Z,5.50
2022-08-28T15:28:44.857Z,5.40
2022-08-28T15:33:46.037Z,5.40
2022-08-28T15:39:06.553Z,5.20
2022-08-28T15:44:10.067Z,5.40
2022-08-28T15:49:17.603Z,5.00
2022-08-28T15:54:22.218Z,4.60
2022-08-28T15:59:23.655Z,6.20
2022-08-28T16:04:27.073Z,6.80
2022-08-28T16:09:28.860Z,7.10
2022-08-28T16:14:31.986Z,7.70
2022-08-28T16:19:33.108Z,8.30
2022-08-28T16:24:34.541Z,8.40
2022-08-28T16:29:36.391Z,7.50
2022-08-28T16:34:39.124Z,8.20
2022-08-28T16:39:40.936Z,8.30
2022-08-28T16:44:42.042Z,8.20
2022-08-28T16:49:43.413Z,8.70
2022-08-28T16:54:47.484Z,8.10
2022-08-28T16:59:52.883Z,8.10
2022-08-28T17:04:57.428Z,8.50
2022-08-28T17:09:59.382Z,9.40
2022-08-28T17:15:00.727Z,9.20
2022-08-28T17:20:04.734Z,9.30
2022-08-28T17:25:13.006Z,9.80
2022-08-28T17:30:14.943Z,10.10
2022-08-28T17:35:16.595Z,9.00
2022-08-28T17:40:17.848Z,10.50
2022-08-28T17:45:19.518Z,9.20
2022-08-28T17:50:21.230Z,9.50
2022-08-28T17:55:22.541Z,10.00
2022-08-28T18:00:24.945Z,9.30
2022-08-28T18:05:26.383Z,9.40
2022-08-28T18:10:32.763Z,9.50
2022-08-28T18:15:34.110Z,9.90
2022-08-28T18:20:39.573Z,10.50
2022-08-28T18:25:40.915Z,10.20
2022-08-28T18:30:46.856Z,9.70
2022-08-28T18:35:56.409Z,9.00
2022-08-28T18:40:58.992Z,9.90
2022-08-28T18:46:01.814Z,9.20
2022-08-28T18:51:06.862Z,8.60
2022-08-28T18:56:08.644Z,8.20
2022-08-28T19:01:12.012Z,8.40
2022-08-28T19:06:14.343Z,8.60
2022-08-28T19:11:15.576Z,8.40
2022-08-28T19:16:19.714Z,7.90
2022-08-28T19:21:21.108Z,8.50
2022-08-28T19:26:24.008Z,8.20
2022-08-28T19:31:26.119Z,8.90
2022-08-28T19:36:29.808Z,8.80
2022-08-28T19:41:31.767Z,8.00
2022-08-28T19:46:35.271Z,8.00
2022-08-28T19:51:37.895Z,7.80
2022-08-28T19:56:39.974Z,8.10
2022-08-28T20:01:44.023Z,7.60
2022-08-28T20:06:45.469Z,8.20
2022-08-28T20:11:48.291Z,8.20
2022-08-28T20:16:50.786Z,7.70
2022-08-28T20:21:51.976Z,7.30
2022-08-28T20:26:53.122Z,7.80
2022-08-28T20:31:54.337Z,7.00
2022-08-28T20:36:55.521Z,8.10
2022-08-28T20:41:56.882Z,7.50
2022-08-28T20:46:58.143Z,7.40
2022-08-28T20:52:01.240Z,7.80
2022-08-28T20:57:08.998Z,7.40
2022-08-28T21:02:14.245Z,7.00
2022-08-28T21:07:18.115Z,6.50
2022-08-28T21:12:19.253Z,7.20
2022-08-28T21:17:28.704Z,6.40
2022-08-28T21:22:33.006Z,6.30
2022-08-28T21:27:37.317Z,5.90
2022-08-28T21:32:39.543Z,5.60
2022-08-28T21:37:41.428Z,5.80
2022-08-28T21:42:43.678Z,5.50
2022-08-28T21:47:44.754Z,5.00
2022-08-28T21:52:46.283Z,5.60
2022-08-28T21:57:47.988Z,5.50
2022-08-28T22:02:49.733Z,5.40
2022-08-28T22:07:51.196Z,5.10
2022-08-28T22:12:52.332Z,4.70
2022-08-28T22:17:54.039Z,4.40
2022-08-28T22:23:13.940Z,4.20
2022-08-28T22:28:15.275Z,4.50
2022-08-28T22:33:16.543Z,4.20
2022-08-28T22:38:19.792Z,4.40
2022-08-28T22:43:21.555Z,5.20
2022-08-28T22:48:22.710Z,4.90
2022-08-28T22:53:24.082Z,4.70
2022-08-28T22:58:26.803Z,4.70
2022-08-28T23:03:28.054Z,4.90
2022-08-28T23:08:33.706Z,5.40
2022-08-28T23:13:36.084Z,5.00
2022-08-28T23:19:06.758Z,5.20
2022-08-28T23:23:59.564Z,5.20
2022-08-28T23:29:00.786Z,6.00
2022-08-28T23:34:03.373Z,5.70
2022-08-28T23:39:06.345Z,5.80
2022-08-28T23:44:09.169Z,5.20
2022-08-28T23:49:12.059Z,5.80
2022-08-28T23:54:13.907Z,5.50
2022-08-28T23:59:15.035Z,5.70
